Time;durP1;ratioP1;P1;durP2;ratioP2;P2;SDS_P1;SDS_P2;PMS_P1;PMS_P2;Temp;Humidity;BMP_temperature;BMP_pressure;BME280_temperature;BME280_humidity;BME280_pressure;Samples;Min_cycle;Max_cycle;Signal;HPM_P1;HPM_P2
2022/09/30 00:01:16;;;;;;;34.42;20.88;;;;;;;6.04;100.00;100516.69;12811374;23;20012;-89
2022/09/30 00:06:16;;;;;;;30.60;22.23;;;;;;;5.96;100.00;100512.38;12813647;23;20000;-88
2022/09/30 00:11:27;;;;;;;31.95;22.23;;;;;;;5.94;100.00;100554.63;12824483;23;20008;-88
2022/09/30 00:16:31;;;;;;;33.55;22.10;;;;;;;5.10;100.00;100450.69;12771819;23;20008;-88
2022/09/30 00:21:34;;;;;;;37.13;22.83;;;;;;;7.00;100.00;100735.50;12791276;23;20016;-89
2022/09/30 00:26:37;;;;;;;30.50;22.13;;;;;;;6.17;100.00;100603.09;12804654;23;20423;-88
2022/09/30 00:31:40;;;;;;;31.77;22.40;;;;;;;5.40;100.00;100424.25;12775873;23;20004;-89
2022/09/30 00:36:42;;;;;;;36.58;23.08;;;;;;;7.39;100.00;100728.53;12808096;23;20020;-89
2022/09/30 00:41:44;;;;;;;36.90;25.05;;;;;;;6.71;100.00;100646.91;12836316;23;20018;-89
2022/09/30 00:46:49;;;;;;;37.53;24.25;;;;;;;5.91;100.00;100519.56;12811496;23;20020;-89
2022/09/30 00:51:53;;;;;;;38.05;22.77;;;;;;;5.37;100.00;100421.97;12827365;23;20038;-88
2022/09/30 00:56:56;;;;;;;38.50;23.38;;;;;;;7.30;100.00;100679.81;12790869;23;20030;-88
2022/09/30 01:01:56;;;;;;;40.05;21.83;;;;;;;6.14;100.00;100519.66;12824530;23;20497;-88
2022/09/30 01:07:01;;;;;;;34.55;23.30;;;;;;;5.69;100.00;100498.22;12807834;23;20031;-87
2022/09/30 01:12:13;;;;;;;33.05;22.73;;;;;;;6.76;100.00;100663.44;12800085;23;20016;-88
2022/09/30 01:17:24;;;;;;;34.10;23.08;;;;;;;6.39;100.00;100562.41;12794010;23;20070;-88
2022/09/30 01:22:24;;;;;;;35.60;23.38;;;;;;;7.00;100.00;100640.50;12786448;23;20016;-89
2022/09/30 01:27:53;;;;;;;44.05;25.02;;;;;;;7.79;100.00;100749.75;12856911;22;20013;-88
2022/09/30 01:33:02;;;;;;;38.10;22.60;;;;;;;7.87;100.00;100752.16;12831853;23;20008;-89
2022/09/30 01:38:11;;;;;;;43.35;23.95;;;;;;;6.74;100.00;100575.28;12847728;23;20446;-88
2022/09/30 01:43:31;;;;;;;37.67;23.80;;;;;;;7.95;100.00;100750.94;12738914;22;20318;-88
2022/09/30 01:48:41;;;;;;;36.45;21.75;;;;;;;5.93;100.00;100462.78;12684747;22;20006;-87
2022/09/30 01:53:50;;;;;;;35.63;22.05;;;;;;;6.34;100.00;100526.72;12691232;22;20018;-88
2022/09/30 01:58:56;;;;;;;34.55;22.80;;;;;;;5.94;100.00;100532.75;12762523;22;20061;-88
2022/09/30 02:03:59;;;;;;;40.47;22.08;;;;;;;6.48;100.00;100645.75;12703666;22;20018;-89
2022/09/30 02:09:52;;;;;;;45.00;22.00;;;;;;;7.28;100.00;100770.44;12725764;22;20009;-88
2022/09/30 02:15:02;;;;;;;33.78;21.60;;;;;;;5.91;100.00;100576.94;12689630;22;20034;-88
2022/09/30 02:20:07;;;;;;;39.58;22.55;;;;;;;6.26;100.00;100662.69;12833236;22;20032;-91
2022/09/30 02:25:11;;;;;;;33.70;21.00;;;;;;;5.89;100.00;100655.56;12746887;22;20016;-89
2022/09/30 02:30:14;;;;;;;39.47;22.95;;;;;;;4.01;100.00;100355.78;12688765;22;20261;-88
2022/09/30 02:35:21;;;;;;;36.15;22.75;;;;;;;6.62;100.00;100762.13;12683979;22;20013;-87
2022/09/30 02:40:35;;;;;;;35.42;23.60;;;;;;;5.73;100.00;100668.78;12596582;22;20463;-88
2022/09/30 02:46:01;;;;;;;38.75;23.35;;;;;;;5.12;100.00;100572.19;12781858;22;20015;-88
2022/09/30 02:51:14;;;;;;;42.60;23.85;;;;;;;6.47;100.00;100838.28;12717080;22;20036;-88
2022/09/30 02:56:21;;;;;;;41.10;23.75;;;;;;;5.87;100.00;100705.00;12683222;22;20013;-88
2022/09/30 03:01:22;;;;;;;44.55;24.70;;;;;;;4.90;100.00;100555.41;12725128;22;20097;-87
2022/09/30 03:06:22;;;;;;;45.33;26.05;;;;;;;4.91;100.00;100594.44;12781447;22;20015;-88
2022/09/30 03:11:25;;;;;;;42.60;25.38;;;;;;;4.88;100.00;100573.03;12662416;22;20011;-88
2022/09/30 03:16:41;;;;;;;100.65;28.17;;;;;;;6.29;100.00;100791.78;12689657;22;20059;-88
2022/09/30 03:21:51;;;;;;;57.63;24.30;;;;;;;4.44;100.00;100526.66;12730848;22;20030;-88
2022/09/30 03:27:04;;;;;;;55.78;25.52;;;;;;;4.83;100.00;100631.00;12808517;22;20006;-87
2022/09/30 03:32:32;;;;;;;43.42;23.75;;;;;;;3.90;100.00;100484.53;12771240;22;20079;-88
2022/09/30 03:38:11;;;;;;;39.13;23.10;;;;;;;6.03;100.00;100794.56;12678249;22;20029;-88
2022/09/30 03:43:32;;;;;;;53.30;22.80;;;;;;;5.96;100.00;100793.00;12816732;22;20047;-88
2022/09/30 03:48:33;;;;;;;43.13;22.23;;;;;;;4.20;100.00;100564.59;12863898;22;20083;-88
2022/09/30 03:53:40;;;;;;;38.15;21.80;;;;;;;5.73;100.00;100796.34;12695885;22;20009;-88
2022/09/30 03:58:43;;;;;;;35.58;21.70;;;;;;;3.88;100.00;100538.38;12704121;22;20070;-87
2022/09/30 04:03:43;;;;;;;34.38;21.55;;;;;;;3.92;100.00;100550.50;12705463;22;20022;-88
2022/09/30 04:08:44;;;;;;;56.13;23.05;;;;;;;4.34;100.00;100654.41;12695192;22;20006;-88
2022/09/30 04:13:45;;;;;;;82.45;22.40;;;;;;;3.23;100.00;100480.28;12702938;22;20012;-89
2022/09/30 04:18:45;;;;;;;58.28;18.50;;;;;;;3.89;100.00;100597.25;12665074;22;20452;-89
2022/09/30 04:23:46;;;;;;;61.13;20.83;;;;;;;2.95;100.00;100445.22;12652436;22;20034;-88
2022/09/30 04:28:49;;;;;;;45.63;18.52;;;;;;;5.16;100.00;100778.06;12708078;22;20011;-87
2022/09/30 04:33:50;;;;;;;56.65;18.95;;;;;;;5.21;100.00;100841.03;12818904;22;20003;-86
2022/09/30 04:38:52;;;;;;;66.15;18.23;;;;;;;5.37;100.00;100828.75;12717204;22;20037;-88
2022/09/30 04:43:54;;;;;;;48.05;17.92;;;;;;;3.01;100.00;100474.28;12804607;22;20015;-89
2022/09/30 04:48:57;;;;;;;45.35;16.88;;;;;;;3.51;100.00;100606.19;12875869;22;20004;-87
2022/09/30 04:54:03;;;;;;;28.08;16.70;;;;;;;3.21;100.00;100552.28;12865609;22;20021;-88
2022/09/30 04:59:03;;;;;;;25.03;17.37;;;;;;;3.34;100.00;100584.88;12829408;22;20033;-88
2022/09/30 05:04:04;;;;;;;40.03;17.50;;;;;;;3.39;100.00;100615.03;12869785;22;20302;-88
2022/09/30 05:09:05;;;;;;;32.75;17.25;;;;;;;4.84;100.00;100911.75;12883699;22;20018;-88
2022/09/30 05:14:07;;;;;;;31.35;17.23;;;;;;;3.46;100.00;100683.03;12884017;22;20003;-88
2022/09/30 05:19:08;;;;;;;52.30;16.95;;;;;;;3.11;100.00;100649.81;12884427;22;20000;-88
2022/09/30 05:24:08;;;;;;;50.75;17.58;;;;;;;3.80;100.00;100773.66;12886315;22;20008;-89
2022/09/30 05:29:09;;;;;;;39.10;15.07;;;;;;;2.27;100.00;100450.19;12859493;22;20073;-89
2022/09/30 05:34:10;;;;;;;86.75;16.50;;;;;;;3.12;100.00;100608.81;12847239;22;20026;-87
2022/09/30 05:39:10;;;;;;;75.88;16.50;;;;;;;4.98;100.00;100907.09;12910441;22;20004;-87
2022/09/30 05:44:11;;;;;;;74.15;15.73;;;;;;;2.84;100.00;100565.53;12871419;22;20031;-87
2022/09/30 05:49:11;;;;;;;38.58;14.27;;;;;;;3.44;100.00;100636.97;12872920;22;20027;-87
2022/09/30 05:54:12;;;;;;;39.42;14.70;;;;;;;4.63;100.00;100824.75;12886845;22;20012;-88
2022/09/30 05:59:13;;;;;;;32.13;14.00;;;;;;;3.64;100.00;100687.81;12885887;22;19996;-89
2022/09/30 06:04:13;;;;;;;64.65;15.68;;;;;;;3.45;100.00;100662.31;12912030;22;20038;-89
2022/09/30 06:09:16;;;;;;;65.05;15.88;;;;;;;3.28;100.00;100642.03;12872778;22;20016;-88
2022/09/30 06:14:18;;;;;;;74.35;16.83;;;;;;;2.90;100.00;100561.97;12910260;22;20000;-87
2022/09/30 06:19:20;;;;;;;42.72;16.10;;;;;;;2.52;100.00;100516.44;12888120;22;20092;-90
2022/09/30 06:24:20;;;;;;;54.60;18.60;;;;;;;3.56;100.00;100685.34;12847880;22;20003;-87
2022/09/30 06:29:21;;;;;;;45.03;17.98;;;;;;;4.68;100.00;100840.50;12873320;22;20086;-88
2022/09/30 06:34:22;;;;;;;63.05;20.38;;;;;;;4.58;100.00;100737.31;12873085;22;20310;-88
2022/09/30 06:39:23;;;;;;;43.88;20.75;;;;;;;4.76;100.00;100829.34;12910814;22;20062;-87
2022/09/30 06:44:23;;;;;;;104.55;22.50;;;;;;;4.56;100.00;100740.25;12869554;22;20019;-88
2022/09/30 06:49:25;;;;;;;53.50;23.00;;;;;;;3.73;100.00;100583.06;12871616;22;20073;-88
2022/09/30 06:54:27;;;;;;;50.38;22.92;;;;;;;5.36;100.00;100848.91;12886094;22;20035;-88
2022/09/30 06:59:27;;;;;;;86.55;26.45;;;;;;;4.00;100.00;100561.16;12872874;22;19995;-88
2022/09/30 07:04:28;;;;;;;71.72;27.60;;;;;;;4.72;100.00;100654.38;12843271;22;20011;-89
2022/09/30 07:09:31;;;;;;;76.78;29.83;;;;;;;5.25;100.00;100689.44;12874266;22;20008;-88
2022/09/30 07:14:32;;;;;;;60.45;29.70;;;;;;;5.10;100.00;100663.53;12881957;22;20082;-88
2022/09/30 07:19:34;;;;;;;64.03;31.15;;;;;;;5.54;100.00;100710.78;12885034;22;20035;-88
2022/09/30 07:24:36;;;;;;;67.35;28.75;;;;;;;5.92;100.00;100758.94;12885247;22;20004;-88
2022/09/30 07:29:37;;;;;;;57.42;30.30;;;;;;;4.75;100.00;100606.72;12845093;22;19999;-88
2022/09/30 07:34:41;;;;;;;55.50;30.05;;;;;;;4.79;100.00;100600.59;12885965;22;20000;-88
2022/09/30 07:39:45;;;;;;;55.10;28.38;;;;;;;5.85;100.00;100765.31;12886530;22;20024;-88
2022/09/30 07:44:46;;;;;;;56.70;31.63;;;;;;;5.85;100.00;100727.06;12843961;22;20043;-90
2022/09/30 07:49:47;;;;;;;58.15;29.40;;;;;;;6.54;100.00;100833.56;12858927;22;20015;-90
2022/09/30 07:54:50;;;;;;;55.83;31.10;;;;;;;5.60;100.00;100656.13;12857040;22;20374;-89
2022/09/30 07:59:50;;;;;;;54.67;29.77;;;;;;;5.69;100.00;100606.66;12836385;22;20018;-88
2022/09/30 08:04:51;;;;;;;48.03;29.70;;;;;;;6.30;100.00;100736.88;12848963;22;20478;-88
2022/09/30 08:09:54;;;;;;;51.40;29.48;;;;;;;5.37;100.00;100561.19;12872320;22;20438;-88
2022/09/30 08:14:55;;;;;;;50.17;29.13;;;;;;;6.02;100.00;100660.91;12900224;22;20082;-88
2022/09/30 08:19:56;;;;;;;49.58;29.75;;;;;;;6.20;100.00;100658.16;12875888;22;20042;-88
2022/09/30 08:24:56;;;;;;;46.42;28.80;;;;;;;6.31;100.00;100653.78;12857349;22;20012;-88
2022/09/30 08:29:57;;;;;;;38.88;26.75;;;;;;;6.97;100.00;100735.97;12870063;22;20388;-89
2022/09/30 08:34:57;;;;;;;36.53;27.10;;;;;;;6.47;100.00;100614.84;12860066;22;20007;-88
2022/09/30 08:39:58;;;;;;;45.47;30.33;;;;;;;8.38;100.00;100929.88;12857839;22;20016;-90
2022/09/30 08:45:15;;;;;;;42.40;27.85;;;;;;;7.90;100.00;100780.97;12846043;22;20442;-91
2022/09/30 08:50:31;;;;;;;36.95;27.13;;;;;;;7.61;100.00;100657.56;12769064;22;20356;-89
2022/09/30 08:55:40;;;;;;;34.17;24.08;;;;;;;8.10;100.00;100679.13;12890273;22;20071;-89
2022/09/30 09:00:41;;;;;;;28.63;20.42;;;;;;;8.57;100.00;100714.66;12829764;22;20458;-91
2022/09/30 09:06:04;;;;;;;25.95;18.75;;;;;;;9.05;100.00;100709.75;12880067;22;20014;-90
2022/09/30 09:11:12;;;;;;;24.08;17.17;;;;;;;9.30;100.00;100728.59;12922653;22;20073;-89
2022/09/30 09:16:25;;;;;;;15.75;12.88;;;;;;;9.33;100.00;100725.34;12830211;22;20079;-90
2022/09/30 09:21:31;;;;;;;16.08;10.45;;;;;;;11.24;100.00;100922.31;12865467;22;20073;-89
2022/09/30 09:26:35;;;;;;;12.63;10.90;;;;;;;11.11;100.00;100858.25;12921317;22;20035;-88
2022/09/30 09:31:38;;;;;;;15.20;10.48;;;;;;;10.68;100.00;100683.69;12871841;22;20016;-87
2022/09/30 09:37:20;;;;;;;13.57;9.68;;;;;;;12.19;100.00;100895.13;12873413;22;20000;-88
2022/09/30 09:42:24;;;;;;;16.75;10.75;;;;;;;12.61;100.00;100886.03;12888640;22;20023;-88
2022/09/30 09:47:24;;;;;;;12.65;9.27;;;;;;;11.37;100.00;100682.13;12919712;22;20089;-89
2022/09/30 09:52:34;;;;;;;11.85;8.52;;;;;;;12.79;100.00;100842.44;12874515;22;25681;-88
2022/09/30 09:57:35;;;;;;;11.60;7.35;;;;;;;11.91;100.00;100683.88;12936116;22;20011;-87
2022/09/30 10:02:38;;;;;;;8.32;6.20;;;;;;;13.37;100.00;100853.44;12885777;22;20098;-87
2022/09/30 10:07:39;;;;;;;7.80;4.82;;;;;;;12.74;100.00;100731.94;12857098;22;20027;-88
2022/09/30 10:12:39;;;;;;;7.25;5.47;;;;;;;12.50;100.00;100680.78;12883941;22;20004;-86
2022/09/30 10:17:40;;;;;;;7.93;5.20;;;;;;;13.18;100.00;100775.69;12857660;22;20004;-87
2022/09/30 10:22:41;;;;;;;8.00;4.35;;;;;;;12.83;100.00;100710.97;12880811;22;20416;-87
2022/09/30 10:27:51;;;;;;;7.93;5.03;;;;;;;13.28;100.00;100767.41;12890028;22;20024;-87
2022/09/30 10:32:52;;;;;;;3.53;2.75;;;;;;;13.85;100.00;100874.25;12913234;22;20114;-89
2022/09/30 10:37:53;;;;;;;4.00;2.45;;;;;;;14.06;100.00;100863.19;12872407;22;20015;-87
2022/09/30 10:42:53;;;;;;;5.43;3.55;;;;;;;14.02;100.00;100766.00;12911983;22;20062;-86
2022/09/30 10:47:54;;;;;;;3.95;2.78;;;;;;;13.87;100.00;100744.75;12887545;22;20004;-85
2022/09/30 10:53:02;;;;;;;3.35;2.97;;;;;;;15.03;100.00;100868.47;12898654;22;20235;-85
2022/09/30 10:58:23;;;;;;;4.45;3.33;;;;;;;14.23;100.00;100700.34;12959198;22;20381;-86
2022/09/30 11:03:29;;;;;;;4.57;3.55;;;;;;;15.07;100.00;100786.41;12909569;22;20019;-85
2022/09/30 11:08:38;;;;;;;5.72;3.60;;;;;;;15.09;100.00;100767.53;12886208;22;20079;-86
2022/09/30 11:13:48;;;;;;;4.60;3.25;;;;;;;15.06;100.00;100854.03;12910094;22;19999;-86
2022/09/30 11:19:06;;;;;;;4.80;3.13;;;;;;;15.10;100.00;100844.03;12897658;22;20002;-86
2022/09/30 11:24:13;;;;;;;3.00;2.38;;;;;;;15.84;100.00;100830.25;12936307;22;20012;-85
2022/09/30 11:29:22;;;;;;;3.67;2.20;;;;;;;16.32;100.00;100821.19;12933935;22;20086;-85
2022/09/30 11:34:51;;;;;;;3.42;2.25;;;;;;;17.03;100.00;100807.53;12935953;22;20018;-86
2022/09/30 11:40:00;;;;;;;4.43;1.77;;;;;;;17.23;100.00;100746.03;12915440;22;20029;-86
2022/09/30 11:45:13;;;;;;;2.25;1.55;;;;;;;17.70;100.00;100807.38;12949025;22;20019;-88
2022/09/30 11:51:11;;;;;;;4.18;1.50;;;;;;;17.73;100.00;100781.69;12626557;22;20032;-87
2022/09/30 11:56:45;;;;;;;1.92;1.30;;;;;;;17.71;100.00;100683.72;12597788;23;20029;-86
2022/09/30 12:01:49;;;;;;;2.75;2.40;;;;;;;18.08;100.00;100643.75;12825735;22;20019;-88
2022/09/30 12:06:56;;;;;;;4.03;2.00;;;;;;;18.71;100.00;100656.03;12809134;22;20090;-90
2022/09/30 12:12:13;;;;;;;3.30;3.00;;;;;;;19.09;94.38;100633.38;12883029;22;20000;-89
2022/09/30 12:17:43;;;;;;;3.40;3.08;;;;;;;19.30;87.98;100621.69;12887710;22;20071;-89
2022/09/30 12:22:44;;;;;;;3.75;2.80;;;;;;;19.17;83.94;100542.50;12877863;22;20024;-91
2022/09/30 12:27:49;;;;;;;6.20;3.08;;;;;;;20.30;81.68;100587.56;12890621;22;20404;-91
2022/09/30 12:33:34;;;;;;;5.88;2.67;;;;;;;20.22;83.73;100652.69;12873348;22;20004;-90
2022/09/30 12:38:35;;;;;;;4.20;2.00;;;;;;;20.50;82.27;100685.94;12723576;23;20155;-90
2022/09/30 12:43:48;;;;;;;2.53;1.85;;;;;;;18.97;82.01;100686.13;12899546;22;20077;-89
2022/09/30 12:48:54;;;;;;;3.00;2.08;;;;;;;19.33;83.82;100663.75;12940485;22;20012;-91
2022/09/30 12:54:11;;;;;;;3.58;1.88;;;;;;;18.60;84.92;100676.09;12855904;22;20030;-91
2022/09/30 12:59:12;;;;;;;3.25;2.13;;;;;;;17.13;87.52;100641.31;12878207;22;20015;-90
2022/09/30 13:04:28;;;;;;;3.13;2.38;;;;;;;17.36;84.65;100499.59;12880784;22;20028;-92
2022/09/30 13:09:36;;;;;;;3.85;2.47;;;;;;;18.29;79.18;100415.66;12861239;22;20030;-92
2022/09/30 13:14:43;;;;;;;6.55;3.30;;;;;;;17.88;79.37;100564.25;12912609;22;20000;-91
2022/09/30 13:19:48;;;;;;;4.85;2.63;;;;;;;17.20;85.86;100450.94;12879628;22;20057;-94
2022/09/30 13:25:03;;;;;;;4.20;3.47;;;;;;;18.75;80.98;100707.25;12877194;22;19999;-93
2022/09/30 13:30:13;;;;;;;4.75;3.50;;;;;;;17.50;85.53;100644.31;12870889;22;20020;-91
2022/09/30 13:35:34;;;;;;;4.53;4.00;;;;;;;15.87;89.70;100527.06;12901924;22;20019;-89
2022/09/30 13:40:35;;;;;;;5.90;4.40;;;;;;;15.82;92.17;100618.75;12895130;22;20062;-90
2022/09/30 13:45:38;;;;;;;7.03;4.70;;;;;;;15.00;95.35;100558.53;12906596;22;20020;-89
2022/09/30 13:50:54;;;;;;;5.78;5.18;;;;;;;15.31;96.67;100475.03;12905986;22;20015;-92
2022/09/30 13:55:55;;;;;;;6.77;5.63;;;;;;;17.38;87.89;100525.13;12891259;22;20083;-89
2022/09/30 14:01:01;;;;;;;4.97;4.47;;;;;;;19.10;87.58;100678.84;12858358;22;20281;-89
2022/09/30 14:06:22;;;;;;;7.70;4.95;;;;;;;17.93;86.98;100681.09;12939013;22;20010;-90
2022/09/30 14:12:05;;;;;;;7.47;5.15;;;;;;;16.84;89.10;100686.00;12907500;22;20026;-88
2022/09/30 14:17:22;;;;;;;6.57;5.07;;;;;;;15.62;95.02;100563.44;12893251;22;20004;-90
2022/09/30 14:22:25;;;;;;;9.02;5.78;;;;;;;15.60;96.52;100504.66;12917407;22;20020;-92
2022/09/30 14:27:48;;;;;;;8.98;6.60;;;;;;;15.07;92.13;100481.41;12863655;22;20485;-89
2022/09/30 14:33:01;;;;;;;9.63;7.75;;;;;;;15.88;92.52;100528.72;12876051;22;20004;-90
2022/09/30 14:38:08;;;;;;;11.10;8.80;;;;;;;15.23;91.53;100384.16;12863747;22;20030;-91
2022/09/30 14:43:13;;;;;;;9.43;7.97;;;;;;;16.12;93.89;100655.56;12896813;22;20065;-91
2022/09/30 14:48:18;;;;;;;8.00;7.00;;;;;;;15.22;97.00;100510.09;12888705;22;20011;-90
2022/09/30 14:53:24;;;;;;;12.40;9.18;;;;;;;15.28;97.48;100486.72;12869526;22;20074;-90
2022/09/30 14:58:30;;;;;;;10.70;8.57;;;;;;;15.40;97.48;100516.81;12920626;22;20007;-88
2022/09/30 15:03:33;;;;;;;10.27;8.55;;;;;;;14.73;98.65;100453.78;12884596;22;20012;-91
2022/09/30 15:08:35;;;;;;;11.98;8.82;;;;;;;15.01;100.00;100490.09;12874430;22;20020;-89
2022/09/30 15:13:36;;;;;;;13.13;9.50;;;;;;;15.29;100.00;100602.09;12890012;22;20004;-94
2022/09/30 15:18:43;;;;;;;12.57;9.38;;;;;;;15.51;100.00;100615.47;12857466;22;20023;-93
2022/09/30 15:23:56;;;;;;;12.40;8.70;;;;;;;14.80;100.00;100486.69;12917402;22;20046;-90
2022/09/30 15:29:07;;;;;;;11.30;9.10;;;;;;;14.60;100.00;100505.16;12856688;22;20046;-89
2022/09/30 15:34:21;;;;;;;13.13;8.98;;;;;;;15.68;100.00;100664.94;12873416;22;20014;-89
2022/09/30 15:40:44;;;;;;;11.40;9.13;;;;;;;13.77;100.00;100401.69;12901095;22;20010;-86
2022/09/30 15:44:50;;;;;;;10.75;9.15;;;;;;;14.48;100.00;100547.03;12905572;22;20083;-86
2022/09/30 15:49:52;;;;;;;15.30;9.88;;;;;;;15.22;100.00;100720.84;12883849;22;20011;-88
2022/09/30 15:54:54;;;;;;;12.98;9.05;;;;;;;13.77;100.00;100470.03;12876500;22;20426;-85
2022/09/30 15:59:59;;;;;;;13.52;10.43;;;;;;;13.71;100.00;100521.78;12900966;22;20024;-86
2022/09/30 16:05:00;;;;;;;12.15;9.55;;;;;;;14.89;100.00;100710.25;12885955;22;20027;-86
2022/09/30 16:10:01;;;;;;;13.93;10.75;;;;;;;14.08;100.00;100600.75;12915240;22;20024;-86
2022/09/30 16:15:13;;;;;;;17.20;10.30;;;;;;;13.86;100.00;100565.97;12889029;22;20318;-86
2022/09/30 16:20:13;;;;;;;12.20;10.30;;;;;;;13.93;100.00;100629.31;12879772;22;20015;-88
2022/09/30 16:25:23;;;;;;;13.90;11.07;;;;;;;14.04;100.00;100689.06;12939068;22;20430;-87
2022/09/30 16:30:24;;;;;;;14.57;11.82;;;;;;;12.51;100.00;100541.63;12923977;22;20057;-87
2022/09/30 16:35:26;;;;;;;12.20;10.80;;;;;;;11.70;100.00;100407.97;12861973;22;20003;-92
2022/09/30 16:40:27;;;;;;;14.48;11.85;;;;;;;11.56;100.00;100444.59;12781622;22;20078;-95
2022/09/30 16:45:28;;;;;;;14.05;12.43;;;;;;;12.04;100.00;100514.25;12866145;22;20015;-93
2022/09/30 16:50:32;;;;;;;25.52;14.93;;;;;;;11.84;100.00;100518.56;12892516;22;20407;-92
2022/09/30 16:55:33;;;;;;;19.40;12.93;;;;;;;11.14;100.00;100429.84;12918926;22;20020;-92
2022/09/30 17:00:34;;;;;;;16.27;13.38;;;;;;;11.19;100.00;100409.75;12900104;22;20024;-90
2022/09/30 17:05:34;;;;;;;18.95;14.82;;;;;;;12.53;100.00;100687.69;12916457;22;19996;-93
2022/09/30 17:10:35;;;;;;;16.70;14.77;;;;;;;10.71;100.00;100396.03;12917345;22;20011;-93
2022/09/30 17:15:36;;;;;;;19.27;15.57;;;;;;;10.93;100.00;100469.38;12878471;22;20003;-88
2022/09/30 17:20:36;;;;;;;16.98;15.18;;;;;;;11.10;100.00;100525.97;12901056;22;20044;-89
2022/09/30 17:25:40;;;;;;;18.52;16.17;;;;;;;11.21;100.00;100548.06;12882626;22;20045;-90
2022/09/30 17:30:43;;;;;;;15.77;14.20;;;;;;;11.83;100.00;100674.13;12902865;22;20437;-91
2022/09/30 17:35:44;;;;;;;17.27;15.45;;;;;;;11.42;100.00;100632.53;12889904;22;20426;-88
2022/09/30 17:46:08;;;;;;;20.88;16.67;;;;;;;10.89;100.00;100573.75;12935702;22;20016;-90
2022/09/30 17:51:09;;;;;;;20.25;17.75;;;;;;;10.20;100.00;100457.00;12887757;22;20334;-91
2022/09/30 17:56:21;;;;;;;20.70;17.80;;;;;;;10.32;100.00;100524.84;12864753;22;20000;-87
2022/09/30 18:01:24;;;;;;;20.05;17.35;;;;;;;9.83;100.00;100435.78;12828678;22;20385;-88
2022/09/30 18:06:27;;;;;;;18.70;15.68;;;;;;;10.04;100.00;100490.97;12864123;22;20002;-88
2022/09/30 18:11:31;;;;;;;16.67;14.77;;;;;;;10.09;100.00;100485.53;12877471;22;20015;-88
2022/09/30 18:16:34;;;;;;;16.45;14.73;;;;;;;8.96;100.00;100282.97;12902764;22;20083;-88
2022/09/30 18:21:36;;;;;;;17.00;14.15;;;;;;;9.42;100.00;100385.88;12875626;22;20326;-88
2022/09/30 18:26:39;;;;;;;14.70;12.95;;;;;;;10.30;100.00;100495.66;12830759;22;19996;-88
2022/09/30 18:31:43;;;;;;;14.70;12.40;;;;;;;10.28;100.00;100539.06;12912510;22;20016;-88
2022/09/30 18:36:44;;;;;;;13.07;11.77;;;;;;;9.52;100.00;100411.81;12873224;22;20004;-89
2022/09/30 18:41:47;;;;;;;12.45;10.40;;;;;;;9.69;100.00;100449.13;12863271;22;20015;-89
2022/09/30 18:46:50;;;;;;;12.55;11.10;;;;;;;9.64;100.00;100418.81;12861673;22;20540;-89
2022/09/30 18:51:51;;;;;;;11.90;10.68;;;;;;;8.77;100.00;100324.47;12921194;22;20022;-89
2022/09/30 18:56:51;;;;;;;12.20;9.85;;;;;;;10.27;100.00;100544.81;12892893;22;19996;-90
2022/09/30 19:01:54;;;;;;;12.10;10.77;;;;;;;9.49;100.00;100435.16;12893135;22;20054;-89
2022/09/30 19:08:20;;;;;;;;;;;;;;;;;;;;;
2022/09/30 19:13:49;;;;;;;;;;;;;;;;;;;;;
2022/09/30 19:49:59;;;;;;;;;;;;;;;;;;;;;
2022/09/30 20:50:11;;;;;;;;;;;;;;;;;;;;;
2022/09/30 21:26:16;;;;;;;7.38;4.22;;;;;;;9.33;100.00;100117.41;9895605;27;15155933;-88
2022/09/30 21:45:55;;;;;;;;;;;;;;;;;;;;;
2022/09/30 22:55:23;;;;;;;3.75;2.70;;;;;;;10.46;100.00;100168.28;12368219;22;10335458;-85
2022/09/30 23:00:27;;;;;;;4.45;2.65;;;;;;;11.74;100.00;100347.56;12625027;22;20027;-86
2022/09/30 23:18:17;;;;;;;5.43;3.45;;;;;;;10.77;100.00;100234.41;12511220;23;20009;-86
2022/09/30 23:23:18;;;;;;;3.80;3.17;;;;;;;10.86;100.00;100243.81;12843760;23;20020;-87
2022/09/30 23:28:22;;;;;;;4.68;3.60;;;;;;;10.65;100.00;100216.22;12859186;23;20386;-87
2022/09/30 23:33:22;;;;;;;10.27;4.03;;;;;;;9.56;100.00;100085.94;12860694;23;20004;-88
2022/09/30 23:38:26;;;;;;;4.95;3.90;;;;;;;9.75;100.00;100135.78;12831607;23;20385;-88
2022/09/30 23:43:29;;;;;;;4.95;4.38;;;;;;;9.89;100.00;100178.19;12879845;22;20031;-88
2022/09/30 23:48:30;;;;;;;11.13;5.15;;;;;;;9.42;100.00;100072.66;12817391;22;20015;-87
2022/09/30 23:53:31;;;;;;;8.10;5.55;;;;;;;9.86;100.00;100176.81;12818989;23;20020;-87
2022/09/30 23:58:32;;;;;;;7.90;6.40;;;;;;;8.61;100.00;99961.25;12862292;22;20020;-86
